This is the latest recevied weather packets stored in our database for station/object VK5TRM-13. If no packets are shown the sender has not sent any weather packets the latest 10 day(s).
| Time | Temp. | Humidity | Pressure | Rain* | Wind** | Luminosity | Snow |
|---|---|---|---|---|---|---|---|
| 1787480403 | 13.89° C | 70% | 1021.3 hPa | 0 mm | - | - | - |
| 1787479503 | 13.89° C | 70% | 1021.3 hPa | 0 mm | - | - | - |
| 1787478602 | 14.44° C | 68% | 1021 hPa | 0 mm | - | - | - |
| 1787477702 | 14.44° C | 68% | 1021 hPa | 0 mm | - | - | - |
| 1787476804 | 15° C | 66% | 1021 hPa | 0 mm | - | - | - |
| 1787475902 | 15.56° C | 63% | 1020.9 hPa | 0 mm | - | - | - |
| 1787475002 | 15.56° C | 63% | 1020.9 hPa | 0 mm | - | - | - |
| 1787474102 | 15.56° C | 63% | 1020.9 hPa | 0 mm | - | - | - |
| 1787473203 | 16.67° C | 59% | 1020.8 hPa | 0 mm | - | - | - |
| 1787472302 | 16.67° C | 59% | 1020.8 hPa | 0 mm | - | - | - |
| 1787471402 | 17.78° C | 53% | 1020.7 hPa | 0 mm | - | - | - |
| 1787470502 | 17.78° C | 53% | 1020.7 hPa | 0 mm | - | - | - |
| 1787469602 | 18.89° C | 49% | 1020.8 hPa | 0 mm | - | - | - |
| 1787468702 | 18.89° C | 49% | 1020.8 hPa | 0 mm | - | - | - |
| 1787467802 | 18.89° C | 47% | 1021.1 hPa | 0 mm | - | - | - |
| 1787466902 | 18.89° C | 47% | 1021.1 hPa | 0 mm | - | - | - |
| 1787466003 | 19.44° C | 49% | 1021.2 hPa | 0 mm | - | - | - |
| 1787465102 | 19.44° C | 49% | 1021.2 hPa | 0 mm | - | - | - |
| 1787464202 | 18.89° C | 47% | 1021.4 hPa | 0 mm | - | - | - |
| 1787463303 | 18.89° C | 47% | 1021.4 hPa | 0 mm | - | - | - |
| 1787462402 | 18.89° C | 49% | 1021.8 hPa | 0 mm | - | - | - |
| 1787461503 | 18.89° C | 49% | 1021.8 hPa | 0 mm | - | - | - |
| 1787460603 | 18.89° C | 48% | 1022 hPa | 0 mm | - | - | - |
| 1787459703 | 18.89° C | 48% | 1022 hPa | 0 mm | - | - | - |
| 1787458802 | 18.89° C | 49% | 1022.4 hPa | 0 mm | - | - | - |
* Rain latest hour (hover to see other rain measurements)
** Current wind speed in m/s (hover to see current wind gust speed)